KNXP

Details ICAO KNXP (NXP)
Name TWENTYNINE PALMS EAF
Region United States
Timezone America/Los_Angeles (UTC-7.0)
Plans Departing 23
Arriving 18
Stats Elevation 2,051 ft / 625 m (AMSL)
Location 34.296110° -116.162096°
Runways 1
Magnetic Variation 11.546° E
Sunrise 2018-05-22 12:39:25 UTC / 2018-05-22 05:39:25 Local
Sunset 2018-05-23 02:46:07 UTC / 2018-05-22 19:46:07 Local
Advertisement - Login to hide

Runways

ID Width Length Bearing (true) Bearing (mag) Surface Threshold Offset Overrun Length
10 150 ft / 46 m 8,006 ft / 2,440 m 112.39° 100.84° Dirt 0 ft / 0 m 0 ft / 0 m
28 150 ft / 46 m 8,006 ft / 2,440 m 292.40° 280.85° Dirt 0 ft / 0 m 0 ft / 0 m

Map

Weather


0- 5 10 15 20 25 30 35+ Temperature / ° C

Clouds and Precipitation
Forecast for 2018-05-22 12:00 UTC. Updated an hour ago

Ground ~20,000 ft ~40,000 ft Winds

METAR

KNXP 221156Z AUTO 32009KT 10SM CLR 17/05 A2984 RMK AO2 SLP072 T01720050 10200 20172 53006

TAF

TAF KNXP 2209/2309 32016G23KT 9999 SCT200 BKN250 QNH2975INS FM221030 32015KT 9999 SKC QNH2975INS BECMG 2220/2222 20009KT 9999 SCT090 QNH2965INS AUTOMATED SENSOR METWATCH 2209 TIL 2215 T18/2213Z T30/2223Z

Frequencies

Tower 135.52 MHz TWR
Warning: Do not use this data for real-world aviation or navigation. No guarantee of current accuracy is given.